Time;durP1;ratioP1;P1;durP2;ratioP2;P2;SDS_P1;SDS_P2;PMS_P1;PMS_P2;Temp;Humidity;BMP_temperature;BMP_pressure;BME280_temperature;BME280_humidity;BME280_pressure;Samples;Min_cycle;Max_cycle;Signal;HPM_P1;HPM_P2
2023/05/25 00:01:37;;;;;;;10.83;4.17;;;18.60;99.90;;;;;;5050954;28;20183;-70
2023/05/25 00:04:05;;;;;;;9.73;4.07;;;18.60;95.20;;;;;;5050645;28;20177;-71
2023/05/25 00:06:36;;;;;;;13.57;4.83;;;18.40;98.50;;;;;;5050466;28;20199;-72
2023/05/25 00:09:03;;;;;;;13.83;5.40;;;18.10;99.90;;;;;;5050722;28;20202;-71
2023/05/25 00:11:31;;;;;;;19.67;6.80;;;17.80;99.90;;;;;;5032788;28;20268;-71
2023/05/25 00:13:58;;;;;;;19.37;6.47;;;17.80;99.90;;;;;;5051334;28;20191;-71
2023/05/25 00:16:25;;;;;;;15.70;5.50;;;17.90;99.90;;;;;;5050239;28;20215;-69
2023/05/25 00:18:56;;;;;;;12.70;4.87;;;18.20;99.90;;;;;;5050224;28;20180;-71
2023/05/25 00:21:24;;;;;;;17.30;5.43;;;17.80;99.90;;;;;;5032703;28;20248;-71
2023/05/25 00:23:51;;;;;;;13.60;4.97;;;17.80;99.90;;;;;;5050505;28;20172;-72
2023/05/25 00:26:19;;;;;;;11.90;4.83;;;17.90;99.90;;;;;;5050001;28;20229;-70
2023/05/25 00:28:46;;;;;;;15.43;4.50;;;17.80;99.90;;;;;;5050436;28;20209;-71
2023/05/25 00:31:13;;;;;;;12.17;4.80;;;17.80;99.90;;;;;;5050725;28;20705;-70
2023/05/25 00:33:41;;;;;;;11.97;4.10;;;17.60;99.90;;;;;;5050522;28;20168;-72
2023/05/25 00:36:08;;;;;;;11.00;4.33;;;17.30;99.90;;;;;;5032398;28;20654;-68
2023/05/25 00:38:35;;;;;;;15.33;5.17;;;17.20;99.90;;;;;;5050774;28;20172;-72
2023/05/25 00:41:04;;;;;;;12.63;4.50;;;17.00;99.90;;;;;;5049656;28;20273;-72
2023/05/25 00:43:32;;;;;;;14.23;4.50;;;17.30;99.90;;;;;;5032714;28;20192;-71
2023/05/25 00:46:00;;;;;;;11.77;4.00;;;17.60;99.90;;;;;;5032142;28;20184;-69
2023/05/25 00:48:27;;;;;;;13.27;4.30;;;17.60;99.90;;;;;;5032044;28;20548;-70
2023/05/25 00:50:58;;;;;;;12.17;4.50;;;17.70;99.90;;;;;;5051119;28;20185;-72
2023/05/25 00:53:26;;;;;;;15.27;5.47;;;17.80;99.90;;;;;;5050456;28;20188;-73
2023/05/25 00:56:23;;;;;;;9.13;4.07;;;17.90;99.90;;;;;;5043591;28;20231;-69
2023/05/25 00:58:55;;;;;;;11.53;4.13;;;18.30;99.90;;;;;;5050612;28;20215;-71
2023/05/25 01:01:25;;;;;;;13.07;4.50;;;18.40;99.90;;;;;;5050304;28;20234;-70
2023/05/25 01:03:55;;;;;;;8.50;3.73;;;18.50;99.90;;;;;;5050015;28;20191;-68
2023/05/25 01:06:25;;;;;;;11.33;4.17;;;18.50;99.90;;;;;;5050281;28;20393;-69
2023/05/25 01:08:59;;;;;;;13.93;4.27;;;18.60;99.90;;;;;;5050767;28;20269;-68
2023/05/25 01:11:34;;;;;;;10.20;3.90;;;18.70;99.90;;;;;;5050151;28;20175;-72
2023/05/25 01:14:02;;;;;;;10.13;3.60;;;18.60;99.90;;;;;;5050233;28;20257;-72
2023/05/25 01:16:30;;;;;;;10.73;3.93;;;18.70;99.90;;;;;;5049968;28;20231;-69
2023/05/25 01:18:57;;;;;;;13.57;3.97;;;18.90;99.90;;;;;;5031319;28;20192;-71
2023/05/25 01:21:40;;;;;;;15.07;4.00;;;18.90;99.90;;;;;;5055555;28;20716;-73
2023/05/25 01:24:21;;;;;;;8.63;3.17;;;19.20;99.90;;;;;;5051499;28;20226;-72
2023/05/25 01:27:08;;;;;;;11.50;3.37;;;19.30;99.90;;;;;;5053651;28;20194;-73
2023/05/25 01:29:39;;;;;;;13.33;3.30;;;19.60;99.90;;;;;;5054208;28;20226;-72
2023/05/25 01:32:08;;;;;;;9.00;2.90;;;19.40;99.90;;;;;;5053675;28;20316;-72
2023/05/25 01:34:37;;;;;;;14.43;3.57;;;19.70;99.90;;;;;;5053577;28;20242;-70
2023/05/25 01:37:05;;;;;;;7.73;3.73;;;20.00;99.90;;;;;;5054087;28;20179;-73
2023/05/25 01:39:32;;;;;;;9.00;3.00;;;20.20;99.90;;;;;;5053502;28;20173;-72
2023/05/25 01:42:00;;;;;;;8.23;3.03;;;20.60;99.90;;;;;;5053539;28;20351;-71
2023/05/25 01:44:28;;;;;;;10.83;3.33;;;21.00;98.20;;;;;;5053472;28;20169;-71
2023/05/25 01:47:15;;;;;;;7.63;3.10;;;20.90;97.50;;;;;;5053116;28;20659;-70
2023/05/25 01:49:58;;;;;;;9.87;3.37;;;20.50;97.60;;;;;;5035796;28;20253;-69
2023/05/25 01:52:46;;;;;;;7.80;2.67;;;20.40;99.70;;;;;;5054019;28;20171;-69
2023/05/25 01:55:17;;;;;;;10.53;3.90;;;20.10;99.20;;;;;;5047361;28;20666;-68
2023/05/25 01:57:49;;;;;;;8.23;3.10;;;19.90;99.90;;;;;;5054325;28;20179;-71
2023/05/25 02:00:18;;;;;;;9.47;3.90;;;19.90;99.90;;;;;;5054273;28;20654;-72
2023/05/25 02:02:47;;;;;;;7.43;2.90;;;19.80;99.90;;;;;;5053764;28;20177;-69
2023/05/25 02:05:15;;;;;;;8.10;2.97;;;19.60;99.90;;;;;;5061124;28;20188;-70
2023/05/25 02:07:42;;;;;;;9.23;3.17;;;19.60;99.90;;;;;;5073581;28;20282;-68
2023/05/25 02:10:10;;;;;;;10.57;3.13;;;19.60;99.90;;;;;;5064889;28;20213;-69
2023/05/25 02:12:37;;;;;;;8.90;3.00;;;19.70;99.90;;;;;;5073783;28;20179;-70
2023/05/25 02:15:05;;;;;;;12.33;3.17;;;19.60;99.90;;;;;;5049270;28;20933;-70
2023/05/25 02:17:32;;;;;;;8.53;2.70;;;19.60;99.90;;;;;;5059990;28;20255;-71
2023/05/25 02:20:00;;;;;;;12.37;3.53;;;19.50;99.90;;;;;;5068478;28;20188;-69
2023/05/25 02:22:27;;;;;;;11.00;3.47;;;19.70;99.90;;;;;;5073443;28;20229;-71
2023/05/25 02:24:55;;;;;;;11.13;3.33;;;19.70;99.90;;;;;;5068938;28;20180;-69
2023/05/25 02:27:22;;;;;;;10.40;3.37;;;19.80;99.90;;;;;;5067178;28;20183;-70
2023/05/25 02:29:51;;;;;;;14.17;3.80;;;19.90;99.90;;;;;;5071185;28;20553;-68
2023/05/25 02:32:20;;;;;;;13.83;3.40;;;19.60;99.90;;;;;;5066583;28;20325;-68
2023/05/25 02:34:47;;;;;;;14.13;3.27;;;19.60;99.90;;;;;;5066799;28;20202;-69
2023/05/25 02:37:14;;;;;;;17.57;3.90;;;19.50;99.90;;;;;;5066420;28;20174;-69
2023/05/25 02:39:42;;;;;;;17.37;4.93;;;19.60;99.90;;;;;;5070976;28;20185;-70
2023/05/25 02:42:09;;;;;;;11.80;4.20;;;19.40;99.90;;;;;;5072613;28;20229;-70
2023/05/25 02:44:36;;;;;;;13.73;3.73;;;19.40;99.90;;;;;;5072916;28;20183;-70
2023/05/25 02:47:05;;;;;;;16.57;4.13;;;19.30;99.90;;;;;;5055253;28;20676;-73
2023/05/25 02:49:33;;;;;;;10.30;4.23;;;19.20;99.90;;;;;;5035224;28;20177;-70
2023/05/25 02:52:00;;;;;;;17.20;4.07;;;19.00;99.90;;;;;;5052581;28;20193;-73
2023/05/25 02:54:27;;;;;;;10.20;3.95;;;19.00;99.90;;;;;;5053098;28;20179;-71
2023/05/25 02:56:55;;;;;;;11.20;4.07;;;18.90;99.90;;;;;;5044821;28;20645;-71
2023/05/25 02:59:23;;;;;;;16.93;4.07;;;18.90;99.90;;;;;;5052871;28;20183;-72
2023/05/25 03:01:51;;;;;;;9.53;3.80;;;18.90;99.90;;;;;;5052218;28;20192;-71
2023/05/25 03:04:18;;;;;;;15.53;4.80;;;18.80;99.90;;;;;;5052407;28;20192;-71
2023/05/25 03:06:46;;;;;;;12.90;4.00;;;18.80;99.90;;;;;;5052741;28;20177;-71
2023/05/25 03:09:13;;;;;;;7.30;3.90;;;18.90;99.90;;;;;;5052472;28;20337;-70
2023/05/25 03:11:41;;;;;;;11.63;3.63;;;18.90;99.90;;;;;;5052822;28;20268;-72
2023/05/25 03:14:10;;;;;;;21.30;4.67;;;18.80;99.90;;;;;;5052933;28;20175;-71
2023/05/25 03:16:37;;;;;;;15.73;4.50;;;18.80;99.90;;;;;;5050986;28;20219;-71
2023/05/25 03:19:06;;;;;;;14.00;4.33;;;18.70;99.90;;;;;;5052704;28;20256;-71
2023/05/25 03:21:33;;;;;;;13.03;4.33;;;18.60;99.90;;;;;;5052278;28;20195;-72
2023/05/25 03:24:00;;;;;;;13.50;4.10;;;18.60;99.90;;;;;;5052192;28;20168;-71
2023/05/25 03:26:29;;;;;;;13.73;4.83;;;18.50;99.90;;;;;;5050207;28;20182;-70
2023/05/25 03:28:57;;;;;;;14.37;4.87;;;18.40;99.90;;;;;;5057281;28;20172;-70
2023/05/25 03:31:24;;;;;;;19.70;5.20;;;18.40;99.90;;;;;;5063419;28;20537;-71
2023/05/25 03:33:51;;;;;;;19.77;4.67;;;18.40;99.90;;;;;;5071944;28;20186;-71
2023/05/25 03:36:20;;;;;;;16.23;4.63;;;18.40;99.90;;;;;;5063974;28;20207;-70
2023/05/25 03:38:48;;;;;;;13.80;4.50;;;18.40;99.90;;;;;;5071423;28;20221;-72
2023/05/25 03:41:15;;;;;;;17.53;4.37;;;18.40;99.90;;;;;;5068944;28;20245;-71
2023/05/25 03:43:43;;;;;;;12.20;4.70;;;18.50;99.90;;;;;;5071712;28;20200;-71
2023/05/25 03:46:10;;;;;;;21.10;4.93;;;18.50;99.90;;;;;;5056071;28;20186;-72
2023/05/25 03:48:38;;;;;;;18.40;4.93;;;18.50;99.90;;;;;;5062839;28;20188;-71
2023/05/25 03:51:05;;;;;;;11.80;5.70;;;18.60;99.90;;;;;;5068079;28;20709;-72
2023/05/25 03:53:32;;;;;;;17.03;5.20;;;18.70;99.90;;;;;;5071012;28;20171;-72
2023/05/25 03:56:00;;;;;;;23.60;5.17;;;18.80;99.90;;;;;;5067844;28;20219;-71
2023/05/25 03:58:27;;;;;;;15.40;4.93;;;19.00;99.90;;;;;;5070847;28;20538;-71
2023/05/25 04:00:55;;;;;;;19.27;5.37;;;19.10;99.90;;;;;;5052649;28;20187;-70
2023/05/25 04:03:22;;;;;;;19.70;4.70;;;19.10;99.90;;;;;;5068232;28;20176;-72
2023/05/25 04:05:50;;;;;;;15.20;5.40;;;19.20;99.90;;;;;;5055357;28;20211;-72
2023/05/25 04:08:21;;;;;;;25.27;5.03;;;19.20;99.90;;;;;;5051521;28;20174;-72
2023/05/25 04:10:48;;;;;;;16.20;4.70;;;19.20;99.90;;;;;;5052896;28;20538;-71
2023/05/25 04:13:15;;;;;;;15.67;4.73;;;19.00;99.90;;;;;;5051223;28;20223;-70
2023/05/25 04:15:43;;;;;;;21.00;4.63;;;19.00;99.90;;;;;;5052335;28;20214;-68
2023/05/25 04:18:14;;;;;;;18.07;5.43;;;19.00;99.90;;;;;;5052458;28;20241;-68
2023/05/25 04:20:41;;;;;;;18.73;5.23;;;19.00;99.90;;;;;;5052575;28;20607;-69
2023/05/25 04:23:08;;;;;;;20.20;4.90;;;19.10;99.90;;;;;;5052493;28;20629;-69
2023/05/25 04:25:37;;;;;;;20.50;4.80;;;18.90;99.90;;;;;;5053222;28;20653;-70
2023/05/25 04:28:07;;;;;;;19.33;6.10;;;18.80;99.90;;;;;;5035113;28;20224;-69
2023/05/25 04:30:35;;;;;;;11.07;4.70;;;18.60;99.90;;;;;;5052734;28;20180;-68
2023/05/25 04:33:02;;;;;;;18.30;4.93;;;18.60;99.90;;;;;;5052265;28;20184;-68
2023/05/25 04:35:30;;;;;;;14.83;4.60;;;18.70;99.90;;;;;;5052223;28;20634;-68
2023/05/25 04:38:01;;;;;;;17.77;4.17;;;18.70;99.90;;;;;;5052429;28;20184;-68
2023/05/25 04:40:29;;;;;;;17.17;4.37;;;18.80;99.90;;;;;;5052590;28;20183;-68
2023/05/25 04:42:56;;;;;;;13.10;4.30;;;18.80;99.90;;;;;;5052162;28;20605;-69
2023/05/25 04:45:23;;;;;;;16.30;4.00;;;18.90;99.90;;;;;;5052341;28;20251;-69
2023/05/25 04:47:51;;;;;;;18.60;5.00;;;19.00;99.90;;;;;;5052322;28;20187;-69
2023/05/25 04:50:18;;;;;;;16.03;3.83;;;19.20;99.90;;;;;;5052448;28;20256;-69
2023/05/25 04:52:46;;;;;;;15.50;3.77;;;19.20;99.90;;;;;;5034809;28;20191;-69
2023/05/25 04:55:13;;;;;;;12.43;3.90;;;19.10;99.90;;;;;;5034423;28;20335;-69
2023/05/25 04:57:41;;;;;;;16.27;3.63;;;19.10;99.90;;;;;;5052255;28;20180;-69
2023/05/25 05:00:11;;;;;;;8.97;2.90;;;19.10;99.90;;;;;;5055019;28;20520;-69
2023/05/25 05:02:38;;;;;;;9.90;2.80;;;19.00;99.90;;;;;;5056269;28;20192;-68
2023/05/25 05:05:06;;;;;;;13.43;3.40;;;19.00;99.90;;;;;;5056420;28;20178;-69
2023/05/25 05:07:33;;;;;;;10.33;3.40;;;18.90;99.90;;;;;;5056317;28;20186;-69
2023/05/25 05:10:01;;;;;;;9.80;3.37;;;18.90;99.90;;;;;;5056189;28;20175;-69
2023/05/25 05:12:28;;;;;;;10.50;3.57;;;18.90;99.90;;;;;;5056016;28;20181;-69
2023/05/25 05:14:56;;;;;;;10.90;3.03;;;18.80;99.90;;;;;;5055885;28;20199;-68
2023/05/25 05:17:25;;;;;;;11.07;3.37;;;18.80;99.90;;;;;;5055961;28;20193;-69
2023/05/25 05:19:52;;;;;;;11.90;3.50;;;18.80;99.90;;;;;;5056035;28;20173;-68
2023/05/25 05:22:19;;;;;;;11.60;3.43;;;18.80;99.90;;;;;;5056046;28;20564;-70
2023/05/25 05:24:47;;;;;;;12.13;3.17;;;18.70;99.90;;;;;;5055985;28;20193;-70
2023/05/25 05:27:15;;;;;;;9.50;3.40;;;18.80;99.90;;;;;;5055856;28;20254;-70
2023/05/25 05:29:42;;;;;;;19.23;4.03;;;18.90;99.90;;;;;;5055684;28;20175;-70
2023/05/25 05:32:10;;;;;;;7.63;3.47;;;18.80;99.90;;;;;;5055962;28;20208;-69
2023/05/25 05:34:37;;;;;;;15.53;3.57;;;18.80;99.90;;;;;;5055795;28;20177;-70
2023/05/25 05:37:04;;;;;;;9.77;3.47;;;18.80;99.90;;;;;;5055576;28;20645;-69
2023/05/25 05:39:32;;;;;;;16.77;4.00;;;19.10;99.90;;;;;;5055478;28;20199;-70
2023/05/25 05:42:00;;;;;;;12.07;3.70;;;19.10;99.90;;;;;;5055291;28;20234;-69
2023/05/25 05:44:27;;;;;;;19.07;4.30;;;18.90;99.90;;;;;;5055439;28;20188;-70
2023/05/25 05:46:58;;;;;;;15.33;4.47;;;18.80;99.90;;;;;;5037435;28;20227;-69
2023/05/25 05:49:30;;;;;;;21.50;3.90;;;18.70;99.90;;;;;;5054333;28;20187;-73
2023/05/25 05:51:58;;;;;;;13.40;4.20;;;18.80;99.90;;;;;;5050223;28;20191;-71
2023/05/25 05:54:26;;;;;;;15.60;4.43;;;18.70;99.90;;;;;;5040523;28;20178;-71
2023/05/25 05:56:54;;;;;;;14.97;5.20;;;18.60;99.90;;;;;;5053164;28;20216;-68
2023/05/25 05:59:22;;;;;;;17.33;5.97;;;18.50;99.90;;;;;;5057604;28;20882;-71
2023/05/25 06:01:50;;;;;;;19.13;5.13;;;18.50;99.90;;;;;;5053701;28;20246;-72
2023/05/25 06:04:18;;;;;;;21.13;5.50;;;18.40;99.90;;;;;;5053534;28;20185;-71
2023/05/25 06:06:45;;;;;;;16.67;5.20;;;18.40;99.90;;;;;;5053904;28;20626;-72
2023/05/25 06:09:13;;;;;;;11.50;4.10;;;18.50;99.90;;;;;;5053419;28;20559;-73
2023/05/25 06:11:40;;;;;;;12.43;4.33;;;18.40;99.90;;;;;;5052091;28;20657;-74
2023/05/25 06:14:08;;;;;;;13.13;4.03;;;18.40;99.90;;;;;;5053656;28;20195;-72
2023/05/25 06:16:35;;;;;;;11.73;3.90;;;18.30;99.90;;;;;;5053071;28;20225;-73
2023/05/25 06:19:02;;;;;;;13.07;4.47;;;18.10;99.90;;;;;;5053135;28;20195;-72
2023/05/25 06:21:30;;;;;;;17.57;4.63;;;18.00;99.90;;;;;;5053383;28;20185;-72
2023/05/25 06:23:57;;;;;;;15.80;4.50;;;17.90;99.90;;;;;;5053795;28;20271;-72
2023/05/25 06:26:25;;;;;;;12.37;4.50;;;17.80;99.90;;;;;;5052952;28;20233;-72
2023/05/25 06:28:53;;;;;;;16.73;5.60;;;17.70;99.90;;;;;;5053559;28;20201;-73
2023/05/25 06:31:21;;;;;;;19.03;6.73;;;17.70;99.90;;;;;;5052589;28;20181;-73
2023/05/25 06:33:48;;;;;;;24.13;7.17;;;17.60;99.90;;;;;;5052969;28;20187;-72
2023/05/25 06:36:15;;;;;;;20.63;6.30;;;17.50;99.90;;;;;;5052935;28;20255;-72
2023/05/25 06:38:43;;;;;;;15.27;4.97;;;17.50;99.90;;;;;;5049273;28;20565;-72
2023/05/25 06:41:13;;;;;;;11.87;3.70;;;17.40;99.90;;;;;;5064687;28;20220;-72
2023/05/25 06:43:44;;;;;;;12.90;3.83;;;17.40;99.90;;;;;;5054812;28;20191;-71
2023/05/25 06:46:16;;;;;;;12.63;4.27;;;17.30;99.90;;;;;;5072567;28;20175;-72
2023/05/25 06:48:44;;;;;;;10.30;3.70;;;17.20;99.90;;;;;;5072236;28;20187;-72
2023/05/25 06:51:12;;;;;;;11.30;3.17;;;17.10;99.90;;;;;;5046597;28;20559;-71
2023/05/25 06:53:39;;;;;;;15.67;3.67;;;17.10;99.90;;;;;;5052193;28;20238;-72
2023/05/25 06:56:07;;;;;;;14.43;3.27;;;17.20;99.90;;;;;;5053349;28;20223;-71
2023/05/25 06:58:34;;;;;;;10.93;3.13;;;17.10;99.90;;;;;;5053861;28;20252;-72
2023/05/25 07:01:02;;;;;;;7.00;3.03;;;17.00;99.90;;;;;;5053957;28;20263;-70
2023/05/25 07:03:31;;;;;;;11.03;3.93;;;16.90;99.90;;;;;;5053928;28;20239;-71
2023/05/25 07:05:58;;;;;;;12.10;3.80;;;16.70;99.90;;;;;;5053533;28;20198;-71
2023/05/25 07:08:26;;;;;;;16.47;4.17;;;16.60;99.90;;;;;;5054142;28;20184;-72
2023/05/25 07:10:53;;;;;;;14.67;4.10;;;16.40;99.90;;;;;;5054065;28;20542;-72
2023/05/25 07:13:20;;;;;;;12.23;3.70;;;16.30;99.90;;;;;;5053774;28;20205;-71
2023/05/25 07:15:48;;;;;;;10.33;3.60;;;16.20;99.90;;;;;;5053878;28;20212;-71
2023/05/25 07:18:15;;;;;;;9.50;3.60;;;16.10;99.90;;;;;;5053943;28;20631;-71
2023/05/25 07:20:43;;;;;;;13.23;3.57;;;16.00;99.90;;;;;;5053626;28;20177;-71
2023/05/25 07:23:11;;;;;;;11.60;4.53;;;16.00;99.90;;;;;;5053620;28;20176;-70
2023/05/25 07:25:39;;;;;;;10.20;3.70;;;16.00;99.90;;;;;;5053949;28;20187;-70
2023/05/25 07:28:07;;;;;;;11.60;3.80;;;15.90;99.90;;;;;;5025721;28;20546;-70
2023/05/25 07:30:35;;;;;;;9.70;4.20;;;15.90;99.90;;;;;;5053551;28;20181;-71
2023/05/25 07:33:02;;;;;;;13.13;4.13;;;15.90;99.90;;;;;;5053575;28;20574;-68
2023/05/25 07:35:30;;;;;;;16.00;4.00;;;15.90;99.90;;;;;;5052975;28;20263;-69
2023/05/25 07:37:59;;;;;;;15.00;4.50;;;15.80;99.90;;;;;;5053671;28;20175;-72
2023/05/25 07:40:27;;;;;;;11.10;4.30;;;15.70;99.90;;;;;;5035491;28;20176;-71
2023/05/25 07:42:54;;;;;;;11.83;3.90;;;15.50;99.90;;;;;;5053258;28;20224;-72
2023/05/25 07:45:22;;;;;;;11.43;4.10;;;15.50;99.90;;;;;;5021649;28;20216;-68
2023/05/25 07:47:49;;;;;;;9.50;3.83;;;15.40;99.90;;;;;;5050922;28;20187;-72
2023/05/25 07:50:16;;;;;;;11.70;4.50;;;15.50;99.90;;;;;;5052141;28;20234;-72
2023/05/25 07:52:44;;;;;;;11.00;4.07;;;15.40;99.90;;;;;;5051576;28;20181;-71
2023/05/25 07:55:11;;;;;;;8.07;4.07;;;15.40;99.90;;;;;;5051930;28;20204;-72
2023/05/25 07:57:39;;;;;;;15.90;4.97;;;15.50;99.90;;;;;;5050704;28;20697;-70
2023/05/25 08:00:09;;;;;;;8.77;4.07;;;15.50;99.90;;;;;;5052882;28;20196;-73
2023/05/25 08:02:37;;;;;;;11.90;4.17;;;15.50;99.90;;;;;;5051042;28;20177;-68
2023/05/25 08:05:05;;;;;;;17.60;4.67;;;15.50;99.90;;;;;;5039363;28;20649;-71
2023/05/25 08:07:33;;;;;;;7.63;3.43;;;15.50;99.90;;;;;;5052663;28;20184;-71
2023/05/25 08:10:01;;;;;;;11.73;3.60;;;15.40;99.90;;;;;;5052948;28;20252;-70
2023/05/25 08:12:28;;;;;;;9.13;3.57;;;15.40;99.90;;;;;;5052890;28;20177;-71
2023/05/25 08:14:56;;;;;;;11.67;3.40;;;15.40;99.90;;;;;;5066891;28;20181;-72
2023/05/25 08:17:23;;;;;;;11.23;3.23;;;15.40;99.90;;;;;;5072486;28;20668;-72
2023/05/25 08:19:50;;;;;;;7.20;3.47;;;15.30;99.90;;;;;;5072773;28;20199;-70
2023/05/25 08:22:18;;;;;;;8.33;3.63;;;15.20;99.90;;;;;;5072635;28;20689;-71
2023/05/25 08:24:45;;;;;;;11.90;3.43;;;15.20;99.90;;;;;;5072888;28;20305;-71
2023/05/25 08:27:13;;;;;;;10.03;4.03;;;15.20;99.90;;;;;;5073054;28;20183;-72
2023/05/25 08:29:40;;;;;;;9.50;3.87;;;15.20;99.90;;;;;;5072711;28;20645;-72
2023/05/25 08:32:07;;;;;;;8.10;3.20;;;15.30;99.90;;;;;;5072536;28;20747;-71
2023/05/25 08:34:35;;;;;;;6.60;3.43;;;15.20;99.90;;;;;;5072029;28;20184;-70
2023/05/25 08:37:02;;;;;;;11.23;3.97;;;15.20;99.90;;;;;;5072559;28;20218;-71
2023/05/25 08:39:29;;;;;;;10.43;3.70;;;15.20;99.90;;;;;;5074978;28;20171;-72
2023/05/25 08:41:57;;;;;;;13.20;4.40;;;15.10;99.90;;;;;;5075728;28;20223;-69
2023/05/25 08:44:26;;;;;;;12.43;4.20;;;15.00;99.90;;;;;;5078321;28;20179;-72
2023/05/25 08:46:56;;;;;;;10.17;3.90;;;14.90;99.90;;;;;;5072524;28;20272;-71
2023/05/25 08:49:24;;;;;;;11.20;3.87;;;14.80;99.90;;;;;;5072566;28;20203;-72
2023/05/25 08:51:54;;;;;;;8.00;3.83;;;14.80;99.90;;;;;;5072129;28;20602;-70
2023/05/25 08:54:31;;;;;;;12.57;4.80;;;14.80;99.90;;;;;;5072534;28;20175;-71
2023/05/25 08:57:13;;;;;;;9.70;4.70;;;14.70;99.90;;;;;;5072358;28;20213;-72
2023/05/25 09:00:00;;;;;;;12.57;4.70;;;14.50;99.90;;;;;;5072577;28;20182;-72
2023/05/25 09:02:53;;;;;;;12.80;3.87;;;14.40;99.90;;;;;;5072229;28;20279;-71
2023/05/25 09:05:21;;;;;;;8.93;3.93;;;14.20;99.90;;;;;;5072459;28;20198;-68
2023/05/25 09:07:50;;;;;;;10.70;4.40;;;14.00;99.90;;;;;;5071767;28;20281;-71
2023/05/25 09:10:18;;;;;;;7.90;3.53;;;14.00;99.90;;;;;;5071836;28;20189;-72
2023/05/25 09:12:47;;;;;;;12.33;4.83;;;13.80;99.90;;;;;;5071950;28;20185;-72
2023/05/25 09:15:15;;;;;;;11.80;4.67;;;13.80;99.90;;;;;;5053663;28;20214;-71
2023/05/25 09:17:43;;;;;;;9.47;4.43;;;13.80;99.90;;;;;;5071595;28;20202;-70
2023/05/25 09:20:14;;;;;;;8.70;4.57;;;13.80;99.90;;;;;;5071708;28;20175;-68
2023/05/25 09:22:43;;;;;;;17.47;5.07;;;13.80;99.90;;;;;;5071649;28;20175;-67
2023/05/25 09:25:12;;;;;;;11.10;5.50;;;13.70;99.90;;;;;;5071815;28;20540;-72
2023/05/25 09:27:40;;;;;;;14.90;4.80;;;13.70;99.90;;;;;;5071867;28;20186;-67
2023/05/25 09:30:08;;;;;;;14.23;5.03;;;13.80;99.90;;;;;;5053635;28;20176;-70
2023/05/25 09:32:36;;;;;;;11.97;4.90;;;13.70;99.90;;;;;;5071640;28;20616;-69
2023/05/25 09:35:14;;;;;;;9.37;5.07;;;13.70;99.90;;;;;;5071623;28;20188;-72
2023/05/25 09:37:42;;;;;;;13.93;5.80;;;13.80;99.90;;;;;;5071674;28;20520;-71
2023/05/25 09:40:10;;;;;;;12.30;5.90;;;14.10;99.90;;;;;;5071560;28;20190;-72
2023/05/25 09:42:38;;;;;;;12.17;5.47;;;14.10;99.90;;;;;;5053685;28;20296;-71
2023/05/25 09:45:06;;;;;;;13.83;5.57;;;14.20;99.90;;;;;;5072292;28;20179;-70
2023/05/25 09:47:36;;;;;;;14.17;5.73;;;14.30;99.90;;;;;;5057153;28;20698;-70
2023/05/25 09:50:04;;;;;;;19.63;6.03;;;14.50;99.90;;;;;;5074797;28;20186;-71
2023/05/25 09:52:31;;;;;;;15.50;6.13;;;14.50;99.90;;;;;;5075231;28;20288;-71
2023/05/25 09:55:01;;;;;;;12.90;6.43;;;14.60;99.90;;;;;;5074937;28;20659;-70
2023/05/25 09:57:28;;;;;;;15.70;5.77;;;14.80;99.90;;;;;;5074892;28;20228;-70
2023/05/25 09:59:57;;;;;;;11.00;4.47;;;14.80;99.90;;;;;;5074984;28;20175;-70
2023/05/25 10:02:24;;;;;;;10.63;4.10;;;14.80;99.90;;;;;;5074856;28;20200;-70
2023/05/25 10:04:52;;;;;;;17.83;4.80;;;14.90;99.90;;;;;;5075040;28;20171;-70
2023/05/25 10:07:19;;;;;;;11.87;4.83;;;14.90;99.90;;;;;;5074738;28;20688;-71
2023/05/25 10:09:49;;;;;;;14.33;4.87;;;15.00;99.90;;;;;;5074998;28;20258;-69
2023/05/25 10:12:21;;;;;;;16.90;6.00;;;14.90;99.90;;;;;;5074544;28;20172;-72
2023/05/25 10:14:50;;;;;;;18.73;5.80;;;15.00;99.90;;;;;;5074858;28;20184;-69
2023/05/25 10:17:26;;;;;;;12.00;5.60;;;15.10;99.90;;;;;;5074398;28;20190;-70
2023/05/25 10:19:59;;;;;;;11.83;5.33;;;14.90;99.90;;;;;;5074174;28;20670;-71
2023/05/25 10:22:43;;;;;;;12.23;5.80;;;14.90;99.90;;;;;;5068098;28;20185;-70
2023/05/25 10:25:23;;;;;;;10.17;5.40;;;14.90;99.90;;;;;;5062710;28;20599;-71
2023/05/25 10:28:10;;;;;;;11.90;5.27;;;14.90;99.90;;;;;;5074289;28;20183;-71
2023/05/25 10:30:40;;;;;;;10.10;5.23;;;14.80;99.90;;;;;;5073807;28;20187;-68
2023/05/25 10:33:07;;;;;;;12.10;5.30;;;14.90;99.90;;;;;;5074197;28;20589;-68
2023/05/25 10:35:36;;;;;;;17.40;5.23;;;14.90;99.90;;;;;;5059159;28;20197;-70
2023/05/25 10:38:05;;;;;;;13.93;6.07;;;14.80;99.90;;;;;;5053663;28;20187;-68
2023/05/25 10:40:33;;;;;;;13.17;5.40;;;14.80;99.90;;;;;;5053713;28;20180;-71
2023/05/25 10:43:01;;;;;;;11.63;4.90;;;15.00;99.90;;;;;;5053164;28;20228;-67
2023/05/25 10:45:29;;;;;;;17.60;4.97;;;15.00;99.90;;;;;;5034893;28;20574;-68
2023/05/25 10:47:58;;;;;;;7.93;4.20;;;15.10;99.90;;;;;;5053539;28;20268;-71
2023/05/25 10:50:26;;;;;;;17.17;6.40;;;15.30;99.90;;;;;;5053696;28;20208;-70
2023/05/25 10:53:01;;;;;;;9.33;4.83;;;15.60;99.90;;;;;;5053703;28;20219;-72
2023/05/25 10:55:40;;;;;;;11.87;4.60;;;15.80;99.90;;;;;;5053271;28;20293;-71
2023/05/25 10:58:13;;;;;;;7.13;4.73;;;16.00;99.90;;;;;;5052477;28;20545;-68
2023/05/25 11:00:41;;;;;;;11.27;5.10;;;16.10;99.90;;;;;;5053831;28;20256;-71
2023/05/25 11:03:09;;;;;;;9.60;4.43;;;16.20;99.90;;;;;;5053605;28;20259;-68
2023/05/25 11:05:40;;;;;;;11.40;4.53;;;16.30;99.90;;;;;;5053587;28;20247;-70
2023/05/25 11:08:11;;;;;;;11.50;4.23;;;16.10;99.90;;;;;;5032918;28;20564;-70
2023/05/25 11:10:51;;;;;;;10.17;4.30;;;16.20;99.90;;;;;;5053247;28;20184;-70
2023/05/25 11:13:43;;;;;;;7.50;3.27;;;16.10;99.90;;;;;;5053466;28;20182;-70
2023/05/25 11:16:36;;;;;;;6.00;2.90;;;16.20;99.90;;;;;;5053469;28;20209;-70
2023/05/25 11:19:13;;;;;;;5.47;2.53;;;16.30;99.90;;;;;;5053261;28;20191;-70
2023/05/25 11:21:42;;;;;;;7.03;2.90;;;16.40;99.90;;;;;;5053302;28;20333;-72
2023/05/25 11:24:17;;;;;;;6.43;3.03;;;16.40;99.90;;;;;;5053225;28;20173;-70
2023/05/25 11:27:00;;;;;;;4.73;3.00;;;16.30;99.90;;;;;;5052803;28;20557;-71
2023/05/25 11:29:31;;;;;;;8.93;3.73;;;16.30;99.90;;;;;;5052767;28;20177;-70
2023/05/25 11:31:59;;;;;;;8.57;3.80;;;16.40;99.90;;;;;;5033591;28;20185;-71
2023/05/25 11:34:28;;;;;;;6.20;3.60;;;16.20;99.90;;;;;;5049046;28;20664;-69
2023/05/25 11:37:02;;;;;;;9.87;3.53;;;16.00;99.90;;;;;;5052338;28;20225;-70
2023/05/25 11:39:33;;;;;;;8.30;3.17;;;15.90;99.90;;;;;;5052932;28;20184;-70
2023/05/25 11:42:10;;;;;;;8.63;3.70;;;16.10;99.90;;;;;;5044902;28;20228;-70
2023/05/25 11:44:38;;;;;;;8.17;3.80;;;16.20;99.90;;;;;;5017869;28;20193;-70
2023/05/25 11:47:13;;;;;;;9.23;4.00;;;16.10;99.90;;;;;;5039714;28;20649;-70
2023/05/25 11:49:44;;;;;;;7.93;3.17;;;16.00;99.90;;;;;;5052332;28;20671;-69
2023/05/25 11:52:13;;;;;;;12.03;3.60;;;15.90;99.90;;;;;;5052545;28;20184;-67
2023/05/25 11:54:41;;;;;;;7.07;3.17;;;15.90;99.90;;;;;;5052267;28;20736;-71
2023/05/25 11:57:23;;;;;;;6.87;3.70;;;15.90;99.90;;;;;;5052046;28;20355;-71
2023/05/25 11:59:56;;;;;;;5.57;2.83;;;16.10;99.90;;;;;;5053013;28;20200;-72
2023/05/25 12:02:24;;;;;;;5.17;2.70;;;16.10;99.90;;;;;;5052165;28;20188;-71
2023/05/25 12:05:01;;;;;;;4.47;2.50;;;16.10;99.90;;;;;;5052833;28;20275;-71
2023/05/25 12:07:30;;;;;;;5.70;2.50;;;16.00;99.90;;;;;;5041258;28;20680;-72
2023/05/25 12:10:13;;;;;;;9.03;2.90;;;15.80;99.90;;;;;;5051494;28;20188;-72
2023/05/25 12:12:51;;;;;;;7.50;3.07;;;15.80;99.90;;;;;;5051992;28;20196;-71
2023/05/25 12:15:23;;;;;;;8.03;2.83;;;16.00;99.40;;;;;;5052168;28;20204;-67
2023/05/25 12:17:52;;;;;;;9.33;2.20;;;16.20;98.80;;;;;;5052451;28;20208;-72
2023/05/25 12:20:20;;;;;;;4.63;2.33;;;16.10;98.40;;;;;;5052363;28;20242;-69
2023/05/25 12:22:48;;;;;;;3.87;2.27;;;16.10;98.20;;;;;;5034499;28;20180;-70
2023/05/25 12:25:20;;;;;;;7.27;2.70;;;16.00;97.50;;;;;;5052195;28;20255;-70
2023/05/25 12:27:47;;;;;;;4.70;2.10;;;16.20;97.60;;;;;;5052333;28;20677;-71
2023/05/25 12:30:15;;;;;;;10.50;2.60;;;16.20;97.00;;;;;;5052044;28;20176;-70
2023/05/25 12:33:04;;;;;;;9.10;1.90;;;16.30;96.30;;;;;;5051440;28;20191;-71
2023/05/25 12:35:47;;;;;;;4.70;2.13;;;16.30;95.50;;;;;;5052402;28;20212;-72
2023/05/25 12:38:18;;;;;;;4.23;1.93;;;16.60;93.80;;;;;;5051930;28;20223;-72
2023/05/25 12:40:45;;;;;;;4.47;2.30;;;16.50;93.40;;;;;;5052053;28;20263;-71
2023/05/25 12:43:14;;;;;;;6.80;2.20;;;16.50;93.60;;;;;;5051765;28;20680;-71
2023/05/25 12:45:42;;;;;;;6.57;2.47;;;16.60;92.10;;;;;;5052191;28;20258;-72
2023/05/25 12:48:10;;;;;;;4.23;2.07;;;16.70;91.30;;;;;;5051726;28;20667;-73
2023/05/25 12:50:38;;;;;;;4.23;2.10;;;16.70;91.30;;;;;;5051549;28;20267;-69
2023/05/25 12:53:05;;;;;;;5.20;1.97;;;16.60;91.90;;;;;;5034298;28;20177;-71